Time;durP1;ratioP1;P1;durP2;ratioP2;P2;SDS_P1;SDS_P2;PMS_P1;PMS_P2;Temp;Humidity;BMP_temperature;BMP_pressure;BME280_temperature;BME280_humidity;BME280_pressure;Samples;Min_cycle;Max_cycle;Signal;HPM_P1;HPM_P2
2023/04/03 00:01:21;;;;;;;5.75;2.22;;;4.10;99.90;;;;;;5109462;28;20593;-58
2023/04/03 00:03:49;;;;;;;6.32;2.35;;;4.10;99.90;;;;;;5108449;28;20043;-58
2023/04/03 00:06:17;;;;;;;7.03;2.30;;;4.00;99.90;;;;;;5099774;28;20039;-57
2023/04/03 00:08:45;;;;;;;11.32;2.53;;;4.00;99.90;;;;;;5108391;28;20050;-58
2023/04/03 00:11:13;;;;;;;8.27;2.80;;;4.00;99.90;;;;;;5100495;28;20039;-58
2023/04/03 00:13:41;;;;;;;8.52;3.22;;;3.90;99.90;;;;;;5108759;28;20044;-58
2023/04/03 00:16:10;;;;;;;10.48;2.50;;;3.90;99.90;;;;;;5108649;28;20039;-59
2023/04/03 00:18:39;;;;;;;5.53;2.63;;;3.90;99.90;;;;;;5109903;28;20040;-58
2023/04/03 00:21:07;;;;;;;11.05;2.60;;;3.90;99.90;;;;;;5109049;28;20040;-58
2023/04/03 00:23:35;;;;;;;10.70;2.63;;;3.90;99.90;;;;;;5109569;28;20408;-59
2023/04/03 00:26:02;;;;;;;9.95;2.35;;;3.90;99.90;;;;;;5108299;28;20039;-59
2023/04/03 00:28:30;;;;;;;11.73;3.40;;;3.80;99.90;;;;;;5101988;28;20044;-59
2023/04/03 00:30:58;;;;;;;6.35;2.78;;;3.80;99.90;;;;;;5089092;28;20050;-58
2023/04/03 00:33:25;;;;;;;10.82;2.28;;;3.80;99.90;;;;;;5091316;28;20055;-58
2023/04/03 00:35:53;;;;;;;14.48;2.67;;;3.80;99.90;;;;;;5089894;28;20067;-57
2023/04/03 00:38:21;;;;;;;7.38;2.60;;;3.80;99.90;;;;;;5101151;28;20032;-58
2023/04/03 00:40:49;;;;;;;9.52;2.47;;;3.70;99.90;;;;;;5098058;28;20517;-59
2023/04/03 00:43:23;;;;;;;8.93;2.28;;;3.70;99.90;;;;;;5108661;28;20114;-58
2023/04/03 00:45:53;;;;;;;13.52;2.85;;;3.70;99.90;;;;;;5105895;28;20114;-59
2023/04/03 00:48:41;;;;;;;;;;;3.60;99.90;;;;;;5072878;28;20482;-57
2023/04/03 00:51:14;;;;;;;8.45;2.20;;;3.60;99.90;;;;;;5094292;28;19920;-58
2023/04/03 00:53:47;;;;;;;7.18;2.10;;;3.60;99.90;;;;;;5097074;28;20039;-58
2023/04/03 00:56:17;;;;;;;4.95;2.17;;;3.60;99.90;;;;;;5094488;28;20062;-59
2023/04/03 00:59:01;;;;;;;7.80;2.17;;;3.60;99.90;;;;;;5070760;28;20048;-58
2023/04/03 01:01:31;;;;;;;5.20;1.90;;;3.60;99.90;;;;;;5102480;28;20048;-58
2023/04/03 01:04:00;;;;;;;7.05;1.73;;;3.50;99.90;;;;;;5101896;28;20055;-59
2023/04/03 01:06:35;;;;;;;8.15;2.53;;;0.40;99.90;;;;;;5105366;28;20066;-58
2023/04/03 01:09:08;;;;;;;8.48;2.60;;;3.50;99.90;;;;;;5107452;28;20032;-58
2023/04/03 01:11:38;;;;;;;5.10;2.35;;;3.50;99.90;;;;;;5098972;27;20047;-58
2023/04/03 01:14:09;;;;;;;6.70;1.98;;;3.50;99.90;;;;;;5100352;28;20035;-58
2023/04/03 01:16:37;;;;;;;5.97;2.10;;;3.40;99.90;;;;;;5080774;28;20044;-59
2023/04/03 01:19:11;;;;;;;8.07;2.38;;;3.40;99.90;;;;;;5082113;28;20042;-58
2023/04/03 01:21:53;;;;;;;5.82;1.98;;;3.40;99.90;;;;;;5104139;28;20054;-59
2023/04/03 01:24:31;;;;;;;11.52;2.28;;;3.40;99.90;;;;;;5086918;28;20035;-59
2023/04/03 01:27:03;;;;;;;9.02;2.95;;;3.30;99.90;;;;;;5089500;28;20052;-58
2023/04/03 01:29:31;;;;;;;9.32;2.30;;;3.30;99.90;;;;;;5103455;28;20043;-58
2023/04/03 01:32:00;;;;;;;8.10;2.10;;;3.30;99.90;;;;;;5103868;28;20059;-59
2023/04/03 01:34:29;;;;;;;7.60;2.33;;;3.30;99.90;;;;;;5084600;28;20035;-58
2023/04/03 01:37:00;;;;;;;5.68;2.13;;;3.30;99.90;;;;;;5094780;28;20036;-59
2023/04/03 01:39:30;;;;;;;11.70;2.38;;;3.20;99.90;;;;;;5094136;28;20040;-59
2023/04/03 01:41:59;;;;;;;10.63;3.20;;;3.20;99.90;;;;;;5091696;28;20040;-59
2023/04/03 01:44:31;;;;;;;10.23;2.80;;;3.20;99.90;;;;;;5092290;28;20478;-58
2023/04/03 01:46:59;;;;;;;8.57;2.15;;;3.20;99.90;;;;;;5084654;28;20048;-59
2023/04/03 01:49:29;;;;;;;10.25;2.65;;;;;;;;;;5092991;28;20050;-59
2023/04/03 01:51:57;;;;;;;7.25;3.25;;;3.20;99.90;;;;;;5093102;28;20036;-59
2023/04/03 01:54:27;;;;;;;11.88;2.90;;;3.10;99.90;;;;;;5093411;28;20403;-58
2023/04/03 01:56:54;;;;;;;7.95;2.45;;;3.10;99.90;;;;;;5111550;28;20051;-59
2023/04/03 01:59:22;;;;;;;13.73;2.83;;;3.10;99.90;;;;;;5092625;28;20510;-59
2023/04/03 02:01:51;;;;;;;9.50;2.53;;;3.10;99.90;;;;;;5093710;28;20039;-58
2023/04/03 02:04:19;;;;;;;5.88;2.33;;;3.00;99.90;;;;;;5081329;28;20369;-58
2023/04/03 02:06:47;;;;;;;10.43;2.53;;;3.00;99.90;;;;;;5073114;28;20055;-57
2023/04/03 02:09:15;;;;;;;8.77;2.40;;;2.90;99.90;;;;;;5063933;28;20052;-58
2023/04/03 02:11:42;;;;;;;14.77;2.67;;;3.00;99.90;;;;;;5099079;28;20044;-59
2023/04/03 02:14:10;;;;;;;10.98;2.15;;;2.90;99.90;;;;;;5110324;28;20035;-57
2023/04/03 02:16:38;;;;;;;5.95;1.73;;;2.90;99.90;;;;;;5073846;28;20055;-58
2023/04/03 02:19:06;;;;;;;6.32;2.00;;;2.90;99.90;;;;;;5098541;28;20054;-59
2023/04/03 02:21:34;;;;;;;10.63;3.10;;;2.90;99.90;;;;;;5111820;28;20047;-58
2023/04/03 02:24:02;;;;;;;9.10;2.33;;;2.90;99.90;;;;;;5111213;28;20059;-58
2023/04/03 02:26:29;;;;;;;5.45;1.80;;;2.80;99.90;;;;;;5111899;28;20051;-59
2023/04/03 02:28:57;;;;;;;8.60;2.28;;;2.80;99.90;;;;;;5112968;28;20048;-60
2023/04/03 02:31:27;;;;;;;7.13;1.60;;;2.70;99.90;;;;;;5114785;28;20044;-59
2023/04/03 02:33:56;;;;;;;5.50;2.17;;;2.80;99.90;;;;;;5109829;28;20060;-59
2023/04/03 02:36:24;;;;;;;4.57;1.45;;;2.70;99.90;;;;;;5096006;28;20410;-58
2023/04/03 02:38:58;;;;;;;3.70;1.77;;;2.70;99.90;;;;;;5094670;28;20526;-58
2023/04/03 02:41:34;;;;;;;4.50;1.70;;;2.70;99.90;;;;;;5098970;28;20495;-58
2023/04/03 02:44:06;;;;;;;4.28;1.35;;;2.60;99.90;;;;;;5084586;28;20036;-58
2023/04/03 02:46:34;;;;;;;6.22;2.13;;;2.60;99.90;;;;;;5103290;27;20035;-57
2023/04/03 02:49:03;;;;;;;8.85;2.13;;;2.60;99.90;;;;;;5109819;27;20036;-58
2023/04/03 02:51:33;;;;;;;8.27;1.90;;;2.60;99.90;;;;;;5096623;28;20048;-57
2023/04/03 02:54:01;;;;;;;10.63;2.13;;;2.50;99.90;;;;;;5110626;28;20039;-58
2023/04/03 02:56:32;;;;;;;4.72;1.92;;;2.50;99.90;;;;;;5113810;28;20422;-57
2023/04/03 02:59:00;;;;;;;11.27;2.15;;;2.50;99.90;;;;;;5104280;28;20051;-58
2023/04/03 03:01:31;;;;;;;8.30;1.95;;;2.30;99.90;;;;;;5093147;28;20043;-58
2023/04/03 03:04:02;;;;;;;8.52;2.30;;;2.40;99.90;;;;;;5114159;28;20059;-60
2023/04/03 03:06:30;;;;;;;10.80;1.67;;;2.30;99.90;;;;;;5096329;28;20043;-58
2023/04/03 03:08:57;;;;;;;8.07;1.92;;;2.20;99.90;;;;;;5096946;28;20043;-59
2023/04/03 03:11:25;;;;;;;7.85;2.00;;;2.20;99.90;;;;;;5086868;28;20052;-57
2023/04/03 03:13:54;;;;;;;6.53;1.88;;;2.20;99.90;;;;;;5101743;28;20047;-59
2023/04/03 03:16:21;;;;;;;8.77;2.63;;;2.30;99.90;;;;;;5098301;28;20040;-57
2023/04/03 03:18:49;;;;;;;14.32;3.30;;;2.20;99.90;;;;;;5114939;27;20039;-59
2023/04/03 03:21:17;;;;;;;6.55;2.00;;;2.10;99.90;;;;;;5079357;28;20051;-57
2023/04/03 03:23:48;;;;;;;6.82;1.95;;;2.10;99.90;;;;;;5114615;28;20471;-56
2023/04/03 03:26:16;;;;;;;4.55;1.60;;;2.10;99.90;;;;;;5110683;27;20055;-57
2023/04/03 03:28:43;;;;;;;10.50;2.53;;;2.10;99.90;;;;;;5114527;28;20058;-58
2023/04/03 03:31:12;;;;;;;5.03;2.00;;;2.10;99.90;;;;;;5096126;28;20051;-58
2023/04/03 03:33:40;;;;;;;14.25;4.97;;;2.10;99.90;;;;;;5095270;28;20036;-58
2023/04/03 03:36:08;;;;;;;7.70;2.25;;;2.10;99.90;;;;;;5111943;28;20612;-58
2023/04/03 03:38:36;;;;;;;3.95;2.10;;;2.10;99.90;;;;;;5094395;28;20047;-58
2023/04/03 03:41:06;;;;;;;7.43;1.77;;;2.00;99.90;;;;;;5113089;28;20052;-58
2023/04/03 03:43:35;;;;;;;6.25;2.13;;;2.00;99.90;;;;;;5096384;28;20040;-57
2023/04/03 03:46:05;;;;;;;8.20;1.92;;;2.00;99.90;;;;;;5096230;28;20070;-58
2023/04/03 03:48:33;;;;;;;20.15;2.85;;;2.00;99.90;;;;;;5112151;28;20048;-58
2023/04/03 03:51:02;;;;;;;7.28;2.58;;;1.90;99.90;;;;;;5093173;28;20051;-57
2023/04/03 03:53:34;;;;;;;7.80;2.45;;;1.90;99.90;;;;;;5080229;28;20036;-57
2023/04/03 03:56:06;;;;;;;8.77;2.00;;;1.90;99.90;;;;;;5078896;28;20506;-58
2023/04/03 03:58:37;;;;;;;8.45;1.92;;;1.90;99.90;;;;;;5112366;28;20043;-58
2023/04/03 04:01:06;;;;;;;6.80;1.98;;;1.90;99.90;;;;;;5109110;28;20047;-59
2023/04/03 04:03:39;;;;;;;9.32;2.58;;;1.90;99.90;;;;;;5109175;28;20383;-58
2023/04/03 04:06:09;;;;;;;4.38;1.98;;;1.90;99.90;;;;;;5078291;28;20043;-57
2023/04/03 04:08:37;;;;;;;5.75;2.17;;;1.90;99.90;;;;;;5094461;28;20044;-57
2023/04/03 04:11:07;;;;;;;15.68;3.00;;;1.80;99.90;;;;;;5091912;28;20043;-58
2023/04/03 04:13:36;;;;;;;5.13;2.03;;;1.90;99.90;;;;;;5074695;28;20043;-58
2023/04/03 04:16:05;;;;;;;5.63;2.45;;;1.80;99.90;;;;;;5087632;28;20299;-58
2023/04/03 04:18:34;;;;;;;12.57;2.08;;;1.80;99.90;;;;;;5090014;28;20035;-58
2023/04/03 04:21:01;;;;;;;8.20;2.15;;;1.80;99.90;;;;;;5107146;28;20044;-58
2023/04/03 04:23:31;;;;;;;9.52;2.42;;;1.80;99.90;;;;;;5095356;28;20044;-58
2023/04/03 04:26:01;;;;;;;9.85;3.05;;;1.80;99.90;;;;;;5111140;28;20141;-57
2023/04/03 04:28:32;;;;;;;11.65;3.92;;;1.70;99.90;;;;;;5110885;28;20031;-58
2023/04/03 04:31:03;;;;;;;12.38;2.00;;;1.80;99.90;;;;;;5111873;28;20047;-59
2023/04/03 04:33:32;;;;;;;14.90;2.78;;;1.70;99.90;;;;;;5091634;28;20492;-57
2023/04/03 04:36:03;;;;;;;11.15;2.17;;;1.70;99.90;;;;;;5074835;28;20052;-58
2023/04/03 04:38:31;;;;;;;4.43;2.03;;;1.70;99.90;;;;;;5095210;28;20051;-58
2023/04/03 04:40:59;;;;;;;9.50;2.95;;;1.70;99.90;;;;;;5111085;28;20382;-58
2023/04/03 04:43:30;;;;;;;11.27;2.40;;;;;;;;;;5094510;28;20050;-58
2023/04/03 04:46:07;;;;;;;6.35;2.35;;;1.70;99.90;;;;;;5112395;28;20040;-58
2023/04/03 04:48:40;;;;;;;6.03;2.20;;;1.70;99.90;;;;;;5076376;28;20039;-58
2023/04/03 04:51:10;;;;;;;8.85;1.73;;;1.70;99.90;;;;;;5078471;28;20040;-58
2023/04/03 04:53:38;;;;;;;11.48;2.80;;;1.60;99.90;;;;;;5085850;28;20058;-59
2023/04/03 04:56:08;;;;;;;5.20;2.00;;;1.60;99.90;;;;;;5089715;28;20055;-58
2023/04/03 04:58:39;;;;;;;7.20;2.45;;;1.60;99.90;;;;;;5105690;28;20055;-58
2023/04/03 05:01:12;;;;;;;10.20;2.80;;;1.60;99.90;;;;;;5097483;27;20048;-58
2023/04/03 05:03:56;;;;;;;18.75;2.42;;;1.60;99.90;;;;;;5097718;27;20581;-58
2023/04/03 05:06:29;;;;;;;8.75;2.80;;;1.50;99.90;;;;;;5082504;28;20036;-58
2023/04/03 05:08:58;;;;;;;;;;;1.60;99.90;;;;;;5104579;28;20052;-59
2023/04/03 05:11:26;;;;;;;8.55;2.35;;;1.50;99.90;;;;;;5105410;28;19919;-60
2023/04/03 05:13:55;;;;;;;8.63;3.05;;;1.50;99.90;;;;;;5089619;28;20059;-58
2023/04/03 05:16:25;;;;;;;31.88;3.35;;;1.40;99.90;;;;;;5090210;28;20050;-59
2023/04/03 05:18:53;;;;;;;9.25;3.00;;;1.40;99.90;;;;;;5100826;28;20036;-58
2023/04/03 05:21:25;;;;;;;8.00;3.00;;;1.40;99.90;;;;;;5084504;28;20039;-59
2023/04/03 05:23:54;;;;;;;10.48;2.78;;;1.40;99.90;;;;;;5089892;28;20048;-58
2023/04/03 05:26:21;;;;;;;7.40;3.00;;;1.40;99.90;;;;;;5070126;28;20059;-58
2023/04/03 05:28:51;;;;;;;8.20;2.40;;;1.30;99.90;;;;;;5072245;28;20440;-58
2023/04/03 05:31:19;;;;;;;9.40;2.95;;;1.30;99.90;;;;;;5083010;28;20058;-58
2023/04/03 05:33:57;;;;;;;9.13;3.42;;;1.30;99.90;;;;;;5084591;28;20391;-58
2023/04/03 05:36:29;;;;;;;;;;;1.30;99.90;;;;;;5095538;28;20404;-58
2023/04/03 05:39:03;;;;;;;11.60;3.15;;;1.20;99.90;;;;;;5087360;28;19919;-59
2023/04/03 05:41:32;;;;;;;10.93;2.97;;;1.20;99.90;;;;;;5085980;28;20036;-57
2023/04/03 05:44:01;;;;;;;8.93;2.95;;;1.30;99.90;;;;;;5084495;28;20063;-58
2023/04/03 05:46:28;;;;;;;12.38;3.42;;;1.20;99.90;;;;;;5087258;28;20044;-58
2023/04/03 05:48:58;;;;;;;;;;;1.30;99.90;;;;;;5057282;28;20524;-58
2023/04/03 05:51:35;;;;;;;8.80;2.45;;;1.20;99.90;;;;;;5084512;28;20430;-59
2023/04/03 05:54:27;;;;;;;13.93;3.28;;;1.20;99.90;;;;;;5085738;28;20040;-59
2023/04/03 05:57:05;;;;;;;23.75;3.55;;;1.10;99.90;;;;;;5100731;28;20041;-58
2023/04/03 05:59:33;;;;;;;10.63;3.10;;;1.20;99.90;;;;;;5084939;28;20051;-58
2023/04/03 06:02:01;;;;;;;16.60;2.90;;;1.20;99.90;;;;;;5085671;28;20492;-59
2023/04/03 06:04:29;;;;;;;8.77;3.30;;;1.20;99.90;;;;;;5083417;28;20055;-58
2023/04/03 06:06:57;;;;;;;21.67;4.47;;;1.20;99.90;;;;;;5074051;28;20048;-60
2023/04/03 06:09:28;;;;;;;11.85;3.33;;;1.20;99.90;;;;;;5063977;28;20658;-59
2023/04/03 06:11:58;;;;;;;11.73;3.72;;;1.20;99.90;;;;;;5083472;28;20395;-60
2023/04/03 06:14:27;;;;;;;12.93;3.08;;;1.20;99.90;;;;;;5086119;28;20048;-59
2023/04/03 06:16:59;;;;;;;12.48;3.63;;;1.30;99.90;;;;;;5086659;28;20039;-58
2023/04/03 06:19:27;;;;;;;7.70;3.13;;;1.30;99.90;;;;;;5082363;28;20575;-59
2023/04/03 06:21:58;;;;;;;17.20;4.10;;;1.30;99.90;;;;;;5067466;28;20496;-58
2023/04/03 06:24:26;;;;;;;8.00;2.97;;;1.30;99.90;;;;;;5077232;28;20040;-57
2023/04/03 06:26:54;;;;;;;7.05;2.90;;;1.30;99.90;;;;;;5099547;28;20056;-58
2023/04/03 06:29:22;;;;;;;11.30;3.40;;;1.30;99.90;;;;;;5076167;28;20040;-58
2023/04/03 06:31:50;;;;;;;5.03;2.80;;;1.40;99.90;;;;;;5083728;28;20071;-59
2023/04/03 06:34:18;;;;;;;5.60;2.50;;;1.40;99.90;;;;;;5074165;28;20045;-58
2023/04/03 06:36:46;;;;;;;8.27;3.40;;;1.40;99.90;;;;;;5086997;28;20299;-56
2023/04/03 06:39:16;;;;;;;13.05;3.25;;;1.50;99.90;;;;;;5106870;28;20140;-58
2023/04/03 06:41:44;;;;;;;9.57;4.03;;;1.50;99.90;;;;;;5107444;28;20044;-58
2023/04/03 06:44:15;;;;;;;14.13;3.53;;;1.50;99.90;;;;;;5106655;28;20044;-57
2023/04/03 06:46:44;;;;;;;9.02;2.88;;;1.60;99.90;;;;;;5099029;28;20048;-58
2023/04/03 06:49:12;;;;;;;7.85;3.17;;;1.60;99.90;;;;;;5101473;28;20047;-59
2023/04/03 06:51:40;;;;;;;8.85;2.55;;;1.70;99.90;;;;;;5103701;28;20490;-59
2023/04/03 06:54:08;;;;;;;9.13;3.05;;;1.70;99.90;;;;;;5105112;28;20051;-59
2023/04/03 06:56:36;;;;;;;16.65;3.47;;;1.00;99.90;;;;;;5105962;28;20051;-58
2023/04/03 06:59:04;;;;;;;5.70;2.05;;;1.90;99.90;;;;;;5094348;28;20040;-57
2023/04/03 07:01:32;;;;;;;7.38;1.98;;;2.00;99.90;;;;;;5083779;28;20039;-58
2023/04/03 07:04:03;;;;;;;13.18;3.17;;;2.10;99.90;;;;;;5079542;28;20055;-58
2023/04/03 07:06:34;;;;;;;3.90;1.92;;;2.10;99.90;;;;;;5088290;28;20040;-58
2023/04/03 07:09:05;;;;;;;10.93;2.13;;;2.20;99.90;;;;;;5104358;28;20047;-58
2023/04/03 07:11:33;;;;;;;7.07;1.75;;;;;;;;;;5092182;28;20502;-58
2023/04/03 07:14:00;;;;;;;10.50;2.25;;;2.40;99.90;;;;;;5105594;28;20509;-60
2023/04/03 07:16:30;;;;;;;13.18;2.60;;;2.40;99.90;;;;;;5111455;28;20043;-59
2023/04/03 07:18:58;;;;;;;3.58;1.40;;;2.50;99.90;;;;;;5105991;28;20052;-58
2023/04/03 07:21:26;;;;;;;5.05;2.10;;;2.60;99.90;;;;;;5100503;28;20050;-60
2023/04/03 07:23:54;;;;;;;9.38;2.35;;;2.60;99.90;;;;;;5104140;28;20051;-58
2023/04/03 07:26:25;;;;;;;13.55;2.15;;;2.70;99.90;;;;;;5105405;28;20047;-58
2023/04/03 07:28:53;;;;;;;5.82;1.90;;;2.80;99.90;;;;;;5107725;28;20039;-58
2023/04/03 07:31:21;;;;;;;7.72;2.00;;;2.80;99.90;;;;;;5103803;28;20040;-59
2023/04/03 07:33:51;;;;;;;11.70;2.40;;;2.90;99.90;;;;;;5100921;28;20055;-59
2023/04/03 07:36:21;;;;;;;6.65;1.70;;;2.90;99.90;;;;;;5101836;28;20040;-58
2023/04/03 07:38:49;;;;;;;9.98;1.90;;;3.00;99.90;;;;;;5104668;28;20047;-58
2023/04/03 07:41:19;;;;;;;5.18;1.42;;;3.20;99.90;;;;;;5106752;28;20039;-58
2023/04/03 07:43:49;;;;;;;4.72;1.55;;;3.30;99.90;;;;;;5109839;28;20052;-57
2023/04/03 07:46:17;;;;;;;16.10;2.13;;;3.30;99.90;;;;;;5090606;28;20051;-58
2023/04/03 07:48:45;;;;;;;7.13;1.88;;;3.40;99.90;;;;;;5107576;28;20048;-58
2023/04/03 07:51:13;;;;;;;9.55;1.65;;;3.40;99.90;;;;;;5109771;28;20046;-60
2023/04/03 07:53:41;;;;;;;4.00;1.90;;;3.50;99.90;;;;;;5109862;28;20062;-58
2023/04/03 07:56:09;;;;;;;6.57;1.60;;;3.50;99.90;;;;;;5105432;28;20506;-60
2023/04/03 07:58:37;;;;;;;4.97;1.35;;;3.70;99.90;;;;;;5101074;28;20063;-59
2023/04/03 08:01:05;;;;;;;10.73;2.45;;;3.80;99.90;;;;;;5087601;28;20047;-59
2023/04/03 08:03:33;;;;;;;7.65;1.67;;;4.00;99.90;;;;;;5106231;28;20051;-58
2023/04/03 08:06:07;;;;;;;5.85;1.58;;;4.10;99.90;;;;;;5100498;28;20036;-58
2023/04/03 08:08:42;;;;;;;10.25;1.63;;;4.00;99.90;;;;;;5087935;28;20059;-58
2023/04/03 08:11:10;;;;;;;1.75;1.23;;;4.20;99.90;;;;;;5103940;28;20050;-58
2023/04/03 08:13:38;;;;;;;6.25;2.00;;;4.30;99.90;;;;;;5091409;28;20052;-59
2023/04/03 08:16:16;;;;;;;6.20;1.23;;;4.40;99.90;;;;;;5103716;28;20528;-58
2023/04/03 08:18:44;;;;;;;12.27;1.67;;;4.40;99.90;;;;;;5097994;28;21000;-58
2023/04/03 08:21:12;;;;;;;7.28;2.53;;;4.50;99.90;;;;;;5090193;28;20509;-58
2023/04/03 08:23:41;;;;;;;11.15;1.60;;;4.60;99.90;;;;;;5109350;28;20039;-58
2023/04/03 08:26:10;;;;;;;10.35;1.95;;;5.10;99.90;;;;;;5107666;28;20035;-59
2023/04/03 08:28:38;;;;;;;4.47;1.08;;;4.80;99.90;;;;;;5106201;28;20039;-59
2023/04/03 08:31:10;;;;;;;9.05;1.35;;;4.80;99.90;;;;;;5086291;28;20048;-58
2023/04/03 08:33:39;;;;;;;13.38;1.52;;;5.00;99.90;;;;;;5106375;28;20051;-59
2023/04/03 08:36:15;;;;;;;7.70;1.30;;;5.10;99.90;;;;;;5086664;28;20058;-59
2023/04/03 08:38:43;;;;;;;8.23;1.73;;;5.00;99.90;;;;;;5090010;28;20039;-59
2023/04/03 08:41:16;;;;;;;7.47;2.25;;;5.10;99.90;;;;;;5105699;28;20376;-59
2023/04/03 08:44:11;;;;;;;9.13;2.25;;;5.10;99.90;;;;;;5106298;28;20047;-59
2023/04/03 08:47:16;;;;;;;7.78;1.60;;;5.30;99.90;;;;;;5089774;28;20051;-59
2023/04/03 08:49:54;;;;;;;4.70;1.08;;;5.30;99.90;;;;;;5103468;28;20390;-58
2023/04/03 08:52:43;;;;;;;5.63;1.20;;;5.40;99.90;;;;;;5108559;28;20478;-59
2023/04/03 08:55:31;;;;;;;3.83;0.70;;;5.50;99.90;;;;;;5102950;28;20399;-57
2023/04/03 08:58:02;;;;;;;4.50;1.00;;;5.50;99.90;;;;;;5063205;28;20052;-58
2023/04/03 09:00:55;;;;;;;6.85;1.20;;;5.50;99.90;;;;;;5105217;28;20047;-58
2023/04/03 09:03:23;;;;;;;9.13;1.40;;;5.60;99.90;;;;;;5084621;28;20062;-59
2023/04/03 09:06:06;;;;;;;3.03;1.10;;;5.70;99.90;;;;;;5106791;28;20056;-58
2023/04/03 09:08:57;;;;;;;8.13;0.80;;;5.80;99.90;;;;;;5102032;28;20054;-59
2023/04/03 09:12:00;;;;;;;6.85;1.08;;;5.90;99.90;;;;;;5066236;28;20056;-59
2023/04/03 09:14:39;;;;;;;12.32;0.88;;;6.00;99.90;;;;;;5089216;28;20044;-58
2023/04/03 09:17:20;;;;;;;9.30;1.45;;;6.00;99.90;;;;;;5090747;28;20039;-58
2023/04/03 09:20:24;;;;;;;7.93;1.63;;;6.10;99.90;;;;;;5108190;28;20043;-58
2023/04/03 09:22:53;;;;;;;12.73;1.95;;;6.20;99.90;;;;;;5081398;28;20059;-58
2023/04/03 09:25:21;;;;;;;11.10;1.25;;;6.20;99.90;;;;;;5108119;28;20044;-58
2023/04/03 09:27:51;;;;;;;;;;;6.30;99.90;;;;;;5105041;28;20047;-58
2023/04/03 09:30:25;;;;;;;12.35;1.63;;;6.30;99.90;;;;;;5108079;28;19927;-58
2023/04/03 09:32:55;;;;;;;2.47;1.10;;;6.40;99.90;;;;;;5105248;28;20040;-58
2023/04/03 09:35:32;;;;;;;6.43;0.98;;;6.50;99.90;;;;;;5083630;28;20499;-59
2023/04/03 09:38:13;;;;;;;10.13;1.30;;;6.50;99.90;;;;;;5101194;28;20498;-59
2023/04/03 09:41:06;;;;;;;5.28;1.30;;;6.60;99.90;;;;;;5106543;28;20047;-58
2023/04/03 09:43:38;;;;;;;10.38;1.98;;;6.70;99.90;;;;;;5107166;28;20058;-58
2023/04/03 09:46:34;;;;;;;7.50;1.25;;;6.90;99.90;;;;;;5108302;28;20047;-58
2023/04/03 09:49:05;;;;;;;3.85;1.63;;;6.90;99.90;;;;;;5092047;28;20047;-58
2023/04/03 09:51:36;;;;;;;5.43;1.40;;;7.00;99.90;;;;;;5087951;28;20047;-58
2023/04/03 09:54:30;;;;;;;4.75;1.83;;;7.00;99.90;;;;;;5105396;28;20035;-57
2023/04/03 09:57:05;;;;;;;8.52;1.98;;;7.20;99.90;;;;;;5097488;28;20526;-58
2023/04/03 09:59:33;;;;;;;11.43;2.45;;;7.30;99.90;;;;;;5101818;28;20051;-58
2023/04/03 10:02:24;;;;;;;6.63;1.40;;;7.40;99.90;;;;;;5105611;28;20483;-58
2023/04/03 10:04:51;;;;;;;7.43;1.17;;;7.40;99.90;;;;;;5102497;28;20050;-58
2023/04/03 10:07:37;;;;;;;8.90;1.58;;;7.40;99.90;;;;;;5083773;28;20055;-58
2023/04/03 10:10:17;;;;;;;4.75;1.55;;;7.50;99.90;;;;;;5099442;28;20395;-57
2023/04/03 10:12:46;;;;;;;7.60;1.60;;;7.50;99.90;;;;;;5106695;28;20055;-58
2023/04/03 10:15:19;;;;;;;8.80;1.75;;;7.50;99.90;;;;;;5088486;28;20035;-58
2023/04/03 10:18:02;;;;;;;7.53;1.48;;;7.50;99.90;;;;;;5107266;28;20537;-57
2023/04/03 10:20:50;;;;;;;4.68;1.55;;;7.50;99.90;;;;;;5104208;28;20043;-56
2023/04/03 10:23:28;;;;;;;9.20;2.80;;;7.60;99.90;;;;;;5085412;28;20039;-57
2023/04/03 10:26:00;;;;;;;6.95;1.40;;;7.80;99.90;;;;;;5104969;28;20059;-58
2023/04/03 10:28:48;;;;;;;9.13;1.73;;;8.00;99.90;;;;;;5105465;28;20040;-57
2023/04/03 10:31:33;;;;;;;5.13;1.73;;;8.00;99.90;;;;;;5084631;28;20262;-60
2023/04/03 10:34:07;;;;;;;8.82;1.85;;;8.10;99.90;;;;;;5101769;28;20036;-58
2023/04/03 10:36:46;;;;;;;4.10;1.38;;;8.30;99.90;;;;;;5099606;28;20039;-58
2023/04/03 10:39:36;;;;;;;6.57;2.00;;;8.40;99.90;;;;;;5087097;28;20055;-57
2023/04/03 10:42:08;;;;;;;6.93;1.70;;;8.50;99.90;;;;;;5100563;28;20040;-58
2023/04/03 10:45:16;;;;;;;6.97;1.45;;;8.50;99.90;;;;;;5101616;28;20051;-57
2023/04/03 10:48:22;;;;;;;6.78;1.85;;;8.70;99.90;;;;;;5104068;28;20059;-59
2023/04/03 10:51:14;;;;;;;9.43;1.77;;;8.90;99.90;;;;;;5013233;28;20057;-58
2023/04/03 10:54:03;;;;;;;7.03;1.77;;;9.00;99.90;;;;;;5026944;28;20064;-57
2023/04/03 10:56:39;;;;;;;2.92;1.60;;;9.10;99.90;;;;;;5085034;28;20431;-57
2023/04/03 10:59:27;;;;;;;5.32;1.80;;;9.10;99.90;;;;;;5084348;28;20035;-57
2023/04/03 11:02:04;;;;;;;13.65;2.30;;;9.10;99.90;;;;;;5097445;28;20046;-58
2023/04/03 11:04:36;;;;;;;8.40;2.05;;;9.20;99.90;;;;;;5107847;28;20062;-57
2023/04/03 11:07:12;;;;;;;7.00;1.80;;;9.30;99.90;;;;;;5110096;28;20046;-58
2023/04/03 11:09:43;;;;;;;3.97;2.00;;;9.40;99.90;;;;;;5104447;28;20043;-58
2023/04/03 11:12:33;;;;;;;5.38;2.00;;;9.50;99.90;;;;;;5105348;28;20047;-57
2023/04/03 11:15:03;;;;;;;4.93;2.13;;;9.60;99.90;;;;;;5109626;28;20044;-57
2023/04/03 11:17:40;;;;;;;11.57;2.17;;;9.50;99.90;;;;;;5097902;28;20047;-56
2023/04/03 11:20:18;;;;;;;5.57;1.90;;;9.50;99.90;;;;;;5101906;28;20040;-57
2023/04/03 11:22:53;;;;;;;3.55;1.60;;;9.50;99.90;;;;;;5109751;28;20082;-57
2023/04/03 11:25:25;;;;;;;4.60;1.90;;;9.50;99.90;;;;;;5110708;28;20047;-57
2023/04/03 11:28:06;;;;;;;3.58;1.80;;;9.60;99.90;;;;;;5105285;28;20035;-57
2023/04/03 11:30:42;;;;;;;9.88;3.33;;;9.70;99.90;;;;;;5108987;28;20040;-57
2023/04/03 11:33:16;;;;;;;11.70;1.90;;;10.00;99.90;;;;;;5109417;28;20043;-57
2023/04/03 11:35:51;;;;;;;7.75;1.90;;;10.30;99.90;;;;;;5109301;28;20058;-57
2023/04/03 11:38:29;;;;;;;6.10;1.92;;;10.50;99.90;;;;;;5108185;28;20046;-56
2023/04/03 11:40:58;;;;;;;7.22;1.98;;;11.20;99.90;;;;;;5107291;28;20046;-57
2023/04/03 11:43:31;;;;;;;4.75;1.80;;;10.50;99.90;;;;;;5108176;28;20039;-57
2023/04/03 11:46:07;;;;;;;4.93;2.20;;;10.50;99.90;;;;;;5104248;28;20056;-57
2023/04/03 11:48:35;;;;;;;5.32;2.13;;;10.50;99.90;;;;;;5103031;28;20059;-57
2023/04/03 11:51:22;;;;;;;5.22;2.03;;;10.60;99.90;;;;;;5108305;28;20058;-58
2023/04/03 11:53:50;;;;;;;3.70;1.95;;;10.80;99.90;;;;;;5096544;28;20045;-56
2023/04/03 11:56:23;;;;;;;6.30;1.63;;;11.10;99.90;;;;;;5107721;28;20051;-58
2023/04/03 11:59:10;;;;;;;7.10;2.28;;;11.30;99.90;;;;;;5081754;28;20059;-58
2023/04/03 12:01:56;;;;;;;7.22;1.65;;;11.60;99.90;;;;;;5108496;28;20056;-58
2023/04/03 12:04:26;;;;;;;8.50;2.72;;;11.60;99.90;;;;;;5109375;28;20048;-58
2023/04/03 12:07:18;;;;;;;7.40;1.90;;;11.70;99.90;;;;;;5108884;28;20040;-59
2023/04/03 12:09:46;;;;;;;7.55;1.75;;;12.10;99.90;;;;;;5107031;28;20048;-58
2023/04/03 12:12:40;;;;;;;5.40;2.03;;;12.60;99.90;;;;;;5110143;28;20052;-58
2023/04/03 12:15:23;;;;;;;5.35;1.40;;;12.60;99.90;;;;;;5106138;28;20039;-59
2023/04/03 12:17:51;;;;;;;4.30;1.50;;;13.10;99.90;;;;;;5108474;28;20059;-58
2023/04/03 12:20:57;;;;;;;5.25;1.27;;;13.50;99.90;;;;;;5108306;28;20043;-58
2023/04/03 12:23:38;;;;;;;5.38;1.50;;;13.60;97.90;;;;;;5093301;28;20051;-59
2023/04/03 12:26:17;;;;;;;3.63;1.50;;;13.80;98.60;;;;;;5098381;28;20040;-57
2023/04/03 12:28:46;;;;;;;5.28;1.83;;;13.90;99.00;;;;;;5102022;28;20051;-59
2023/04/03 12:31:17;;;;;;;7.53;1.85;;;14.40;98.00;;;;;;5109693;28;20406;-59
2023/04/03 12:34:14;;;;;;;9.63;2.28;;;14.40;98.50;;;;;;5091926;28;20517;-59
2023/04/03 12:36:54;;;;;;;7.30;1.90;;;14.70;97.00;;;;;;5108675;28;20048;-58
2023/04/03 12:39:53;;;;;;;6.50;1.92;;;15.00;95.90;;;;;;5108711;28;20040;-58
2023/04/03 12:42:47;;;;;;;6.13;1.63;;;15.00;93.50;;;;;;5104444;28;20062;-58
2023/04/03 12:45:26;;;;;;;3.60;1.42;;;15.00;93.40;;;;;;5107979;28;20043;-57
2023/04/03 12:47:55;;;;;;;8.10;1.75;;;15.20;94.30;;;;;;5106270;28;20059;-59
2023/04/03 12:50:33;;;;;;;;;;;15.30;94.60;;;;;;5105648;28;20502;-58
2023/04/03 12:53:26;;;;;;;6.50;1.40;;;15.50;93.20;;;;;;5089707;28;19930;-60
2023/04/03 12:55:55;;;;;;;7.65;1.80;;;15.70;92.20;;;;;;5103729;28;20048;-59
2023/04/03 12:58:28;;;;;;;6.00;1.70;;;15.90;91.70;;;;;;5106281;28;20043;-58
2023/04/03 13:01:01;;;;;;;;;;;16.10;90.10;;;;;;5083375;28;20052;-58
2023/04/03 13:03:39;;;;;;;7.25;1.42;;;16.20;87.60;;;;;;5105264;28;19923;-59
2023/04/03 13:06:13;;;;;;;3.95;1.50;;;16.10;88.10;;;;;;5079716;28;20039;-58
2023/04/03 13:08:49;;;;;;;3.65;1.20;;;16.10;85.50;;;;;;5086197;28;20043;-59
2023/04/03 13:11:20;;;;;;;4.65;1.67;;;15.90;84.90;;;;;;5107852;28;20062;-59
2023/04/03 13:14:12;;;;;;;8.93;1.48;;;16.00;88.50;;;;;;5104847;28;20046;-58
2023/04/03 13:16:41;;;;;;;5.07;1.50;;;16.00;88.30;;;;;;5097588;28;20431;-60
2023/04/03 13:19:17;;;;;;;4.65;1.58;;;16.10;88.70;;;;;;5106782;28;20415;-59
2023/04/03 13:21:46;;;;;;;7.55;1.05;;;16.50;90.20;;;;;;5103805;28;20040;-59
2023/04/03 13:24:14;;;;;;;5.32;1.45;;;16.60;83.00;;;;;;5104722;28;20039;-59
2023/04/03 13:26:43;;;;;;;4.10;1.50;;;16.80;82.80;;;;;;5107179;28;20050;-58